sensor_id;sensor_type;location;lat;lon;timestamp;P1;durP1;ratioP1;P2;durP2;ratioP2
57531;SDS011;43359;51.296;16.904;2022-10-16T00:00:50;101.32;;;94.90;;
57531;SDS011;43359;51.296;16.904;2022-10-16T00:03:16;99.30;;;93.03;;
57531;SDS011;43359;51.296;16.904;2022-10-16T00:05:43;99.35;;;93.55;;
57531;SDS011;43359;51.296;16.904;2022-10-16T00:08:10;97.50;;;91.55;;
57531;SDS011;43359;51.296;16.904;2022-10-16T00:10:36;95.93;;;90.00;;
57531;SDS011;43359;51.296;16.904;2022-10-16T00:13:03;91.70;;;85.80;;
57531;SDS011;43359;51.296;16.904;2022-10-16T00:15:29;87.38;;;81.85;;
57531;SDS011;43359;51.296;16.904;2022-10-16T00:17:55;91.68;;;86.07;;
57531;SDS011;43359;51.296;16.904;2022-10-16T00:20:22;93.18;;;87.80;;
57531;SDS011;43359;51.296;16.904;2022-10-16T00:22:48;91.50;;;86.40;;
57531;SDS011;43359;51.296;16.904;2022-10-16T00:25:14;103.03;;;97.15;;
57531;SDS011;43359;51.296;16.904;2022-10-16T00:27:40;96.30;;;90.85;;
57531;SDS011;43359;51.296;16.904;2022-10-16T00:30:07;94.07;;;88.85;;
57531;SDS011;43359;51.296;16.904;2022-10-16T00:32:33;103.97;;;98.32;;
57531;SDS011;43359;51.296;16.904;2022-10-16T00:34:59;95.07;;;90.05;;
57531;SDS011;43359;51.296;16.904;2022-10-16T00:37:25;99.57;;;94.38;;
57531;SDS011;43359;51.296;16.904;2022-10-16T00:39:51;104.68;;;99.22;;
57531;SDS011;43359;51.296;16.904;2022-10-16T00:42:18;103.40;;;98.15;;
57531;SDS011;43359;51.296;16.904;2022-10-16T00:47:28;91.78;;;86.68;;
57531;SDS011;43359;51.296;16.904;2022-10-16T00:52:40;102.40;;;97.25;;
57531;SDS011;43359;51.296;16.904;2022-10-16T00:55:08;103.50;;;98.07;;
57531;SDS011;43359;51.296;16.904;2022-10-16T00:57:35;101.88;;;96.68;;
57531;SDS011;43359;51.296;16.904;2022-10-16T01:00:03;99.53;;;94.43;;
57531;SDS011;43359;51.296;16.904;2022-10-16T01:02:30;90.85;;;86.32;;
57531;SDS011;43359;51.296;16.904;2022-10-16T01:04:56;91.82;;;87.07;;
57531;SDS011;43359;51.296;16.904;2022-10-16T01:10:38;93.93;;;89.00;;
57531;SDS011;43359;51.296;16.904;2022-10-16T01:12:45;102.60;;;97.80;;
57531;SDS011;43359;51.296;16.904;2022-10-16T01:20:31;96.63;;;92.05;;
57531;SDS011;43359;51.296;16.904;2022-10-16T01:28:12;89.50;;;85.18;;
57531;SDS011;43359;51.296;16.904;2022-10-16T01:30:39;90.65;;;86.38;;
57531;SDS011;43359;51.296;16.904;2022-10-16T01:33:08;91.57;;;87.38;;
57531;SDS011;43359;51.296;16.904;2022-10-16T01:35:36;100.68;;;95.97;;
57531;SDS011;43359;51.296;16.904;2022-10-16T01:38:05;95.80;;;91.28;;
57531;SDS011;43359;51.296;16.904;2022-10-16T01:40:34;97.80;;;93.40;;
57531;SDS011;43359;51.296;16.904;2022-10-16T01:43:24;97.50;;;92.90;;
57531;SDS011;43359;51.296;16.904;2022-10-16T01:45:48;98.70;;;94.05;;
57531;SDS011;43359;51.296;16.904;2022-10-16T01:48:15;95.80;;;91.40;;
57531;SDS011;43359;51.296;16.904;2022-10-16T01:50:43;97.22;;;92.53;;
57531;SDS011;43359;51.296;16.904;2022-10-16T01:53:11;99.40;;;94.80;;
57531;SDS011;43359;51.296;16.904;2022-10-16T01:55:40;97.20;;;92.80;;
57531;SDS011;43359;51.296;16.904;2022-10-16T01:58:10;94.57;;;90.28;;
57531;SDS011;43359;51.296;16.904;2022-10-16T02:00:38;89.18;;;85.05;;
57531;SDS011;43359;51.296;16.904;2022-10-16T02:03:05;90.13;;;85.88;;
57531;SDS011;43359;51.296;16.904;2022-10-16T02:08:04;89.80;;;85.80;;
57531;SDS011;43359;51.296;16.904;2022-10-16T02:10:30;93.50;;;89.30;;
57531;SDS011;43359;51.296;16.904;2022-10-16T02:12:58;94.30;;;90.30;;
57531;SDS011;43359;51.296;16.904;2022-10-16T02:15:25;102.30;;;97.82;;
57531;SDS011;43359;51.296;16.904;2022-10-16T02:17:51;99.80;;;95.57;;
57531;SDS011;43359;51.296;16.904;2022-10-16T02:20:18;110.80;;;105.95;;
57531;SDS011;43359;51.296;16.904;2022-10-16T02:22:46;98.45;;;94.25;;
57531;SDS011;43359;51.296;16.904;2022-10-16T02:25:22;108.18;;;103.47;;
57531;SDS011;43359;51.296;16.904;2022-10-16T02:30:27;94.50;;;90.28;;
57531;SDS011;43359;51.296;16.904;2022-10-16T02:32:55;101.38;;;97.05;;
57531;SDS011;43359;51.296;16.904;2022-10-16T02:35:22;98.10;;;93.90;;
57531;SDS011;43359;51.296;16.904;2022-10-16T02:37:49;99.93;;;95.72;;
57531;SDS011;43359;51.296;16.904;2022-10-16T02:40:16;99.45;;;95.18;;
57531;SDS011;43359;51.296;16.904;2022-10-16T02:42:43;94.40;;;90.40;;
57531;SDS011;43359;51.296;16.904;2022-10-16T02:45:10;93.97;;;89.97;;
57531;SDS011;43359;51.296;16.904;2022-10-16T02:47:37;91.32;;;87.30;;
57531;SDS011;43359;51.296;16.904;2022-10-16T02:50:03;93.10;;;88.90;;
57531;SDS011;43359;51.296;16.904;2022-10-16T02:52:30;98.25;;;93.95;;
57531;SDS011;43359;51.296;16.904;2022-10-16T02:54:56;111.90;;;106.28;;
57531;SDS011;43359;51.296;16.904;2022-10-16T02:57:22;104.97;;;100.60;;
57531;SDS011;43359;51.296;16.904;2022-10-16T02:59:48;101.97;;;97.70;;
57531;SDS011;43359;51.296;16.904;2022-10-16T03:02:14;91.70;;;87.65;;
57531;SDS011;43359;51.296;16.904;2022-10-16T03:04:40;99.20;;;95.00;;
57531;SDS011;43359;51.296;16.904;2022-10-16T03:07:07;97.30;;;93.00;;
57531;SDS011;43359;51.296;16.904;2022-10-16T03:09:35;82.88;;;79.15;;
57531;SDS011;43359;51.296;16.904;2022-10-16T03:12:01;88.15;;;84.30;;
57531;SDS011;43359;51.296;16.904;2022-10-16T03:14:27;88.85;;;84.85;;
57531;SDS011;43359;51.296;16.904;2022-10-16T03:16:53;86.00;;;82.07;;
57531;SDS011;43359;51.296;16.904;2022-10-16T03:19:23;96.10;;;91.57;;
57531;SDS011;43359;51.296;16.904;2022-10-16T03:21:49;90.47;;;86.35;;
57531;SDS011;43359;51.296;16.904;2022-10-16T03:24:15;97.57;;;93.50;;
57531;SDS011;43359;51.296;16.904;2022-10-16T03:26:41;89.10;;;85.30;;
57531;SDS011;43359;51.296;16.904;2022-10-16T03:29:08;83.93;;;80.13;;
57531;SDS011;43359;51.296;16.904;2022-10-16T03:31:34;86.18;;;82.22;;
57531;SDS011;43359;51.296;16.904;2022-10-16T03:34:00;87.88;;;84.00;;
57531;SDS011;43359;51.296;16.904;2022-10-16T03:36:27;82.63;;;79.03;;
57531;SDS011;43359;51.296;16.904;2022-10-16T03:38:53;91.88;;;87.78;;
57531;SDS011;43359;51.296;16.904;2022-10-16T03:41:19;87.03;;;83.28;;
57531;SDS011;43359;51.296;16.904;2022-10-16T03:43:45;66.47;;;63.25;;
57531;SDS011;43359;51.296;16.904;2022-10-16T03:46:11;64.32;;;61.30;;
57531;SDS011;43359;51.296;16.904;2022-10-16T03:48:37;53.28;;;50.50;;
57531;SDS011;43359;51.296;16.904;2022-10-16T03:51:05;55.38;;;52.67;;
57531;SDS011;43359;51.296;16.904;2022-10-16T03:53:31;57.50;;;54.53;;
57531;SDS011;43359;51.296;16.904;2022-10-16T03:55:57;53.03;;;50.42;;
57531;SDS011;43359;51.296;16.904;2022-10-16T03:58:23;56.55;;;53.63;;
57531;SDS011;43359;51.296;16.904;2022-10-16T04:00:49;54.67;;;51.78;;
57531;SDS011;43359;51.296;16.904;2022-10-16T04:03:16;54.80;;;52.08;;
57531;SDS011;43359;51.296;16.904;2022-10-16T04:05:44;49.85;;;47.25;;
57531;SDS011;43359;51.296;16.904;2022-10-16T04:08:10;65.32;;;62.22;;
57531;SDS011;43359;51.296;16.904;2022-10-16T04:10:36;65.93;;;62.60;;
57531;SDS011;43359;51.296;16.904;2022-10-16T04:13:04;65.32;;;62.13;;
57531;SDS011;43359;51.296;16.904;2022-10-16T04:15:30;67.40;;;64.10;;
57531;SDS011;43359;51.296;16.904;2022-10-16T04:17:56;66.30;;;63.03;;
57531;SDS011;43359;51.296;16.904;2022-10-16T04:20:22;63.55;;;60.45;;
57531;SDS011;43359;51.296;16.904;2022-10-16T04:22:48;57.50;;;54.50;;
57531;SDS011;43359;51.296;16.904;2022-10-16T04:25:14;70.97;;;67.65;;
57531;SDS011;43359;51.296;16.904;2022-10-16T04:27:41;65.55;;;62.30;;
57531;SDS011;43359;51.296;16.904;2022-10-16T04:30:07;71.97;;;68.68;;
57531;SDS011;43359;51.296;16.904;2022-10-16T04:32:33;68.65;;;65.18;;
57531;SDS011;43359;51.296;16.904;2022-10-16T04:35:00;69.65;;;66.35;;
57531;SDS011;43359;51.296;16.904;2022-10-16T04:37:26;75.07;;;71.53;;
57531;SDS011;43359;51.296;16.904;2022-10-16T04:39:53;83.20;;;79.40;;
57531;SDS011;43359;51.296;16.904;2022-10-16T04:42:19;75.95;;;72.25;;
57531;SDS011;43359;51.296;16.904;2022-10-16T04:44:46;77.63;;;74.15;;
57531;SDS011;43359;51.296;16.904;2022-10-16T04:47:12;72.68;;;69.32;;
57531;SDS011;43359;51.296;16.904;2022-10-16T04:49:38;68.07;;;64.65;;
57531;SDS011;43359;51.296;16.904;2022-10-16T04:52:04;77.70;;;73.97;;
57531;SDS011;43359;51.296;16.904;2022-10-16T04:54:30;76.57;;;72.68;;
57531;SDS011;43359;51.296;16.904;2022-10-16T04:56:56;76.05;;;72.45;;
57531;SDS011;43359;51.296;16.904;2022-10-16T04:59:23;91.30;;;87.20;;
57531;SDS011;43359;51.296;16.904;2022-10-16T05:01:49;97.15;;;92.78;;
57531;SDS011;43359;51.296;16.904;2022-10-16T05:04:15;91.15;;;87.35;;
57531;SDS011;43359;51.296;16.904;2022-10-16T05:06:47;88.20;;;84.30;;
57531;SDS011;43359;51.296;16.904;2022-10-16T05:09:14;93.80;;;89.60;;
57531;SDS011;43359;51.296;16.904;2022-10-16T05:11:40;78.20;;;74.60;;
57531;SDS011;43359;51.296;16.904;2022-10-16T05:14:06;83.50;;;79.53;;
57531;SDS011;43359;51.296;16.904;2022-10-16T05:16:32;76.03;;;72.70;;
57531;SDS011;43359;51.296;16.904;2022-10-16T05:18:58;74.00;;;70.50;;
57531;SDS011;43359;51.296;16.904;2022-10-16T05:21:24;79.95;;;76.55;;
57531;SDS011;43359;51.296;16.904;2022-10-16T05:23:52;90.40;;;86.40;;
57531;SDS011;43359;51.296;16.904;2022-10-16T05:26:19;80.88;;;77.38;;
57531;SDS011;43359;51.296;16.904;2022-10-16T05:28:45;80.60;;;76.93;;
57531;SDS011;43359;51.296;16.904;2022-10-16T05:31:12;70.35;;;66.95;;
57531;SDS011;43359;51.296;16.904;2022-10-16T05:33:38;76.45;;;72.75;;
57531;SDS011;43359;51.296;16.904;2022-10-16T05:36:08;74.75;;;71.22;;
57531;SDS011;43359;51.296;16.904;2022-10-16T05:38:35;72.68;;;69.18;;
57531;SDS011;43359;51.296;16.904;2022-10-16T05:41:01;69.63;;;66.32;;
57531;SDS011;43359;51.296;16.904;2022-10-16T05:43:28;60.88;;;57.85;;
57531;SDS011;43359;51.296;16.904;2022-10-16T05:45:58;52.78;;;49.95;;
57531;SDS011;43359;51.296;16.904;2022-10-16T05:48:25;50.92;;;48.13;;
57531;SDS011;43359;51.296;16.904;2022-10-16T05:51:01;60.28;;;57.17;;
57531;SDS011;43359;51.296;16.904;2022-10-16T05:53:28;62.72;;;59.53;;
57531;SDS011;43359;51.296;16.904;2022-10-16T05:55:58;66.28;;;63.08;;
57531;SDS011;43359;51.296;16.904;2022-10-16T05:58:25;59.08;;;56.10;;
57531;SDS011;43359;51.296;16.904;2022-10-16T06:00:58;58.42;;;55.47;;
57531;SDS011;43359;51.296;16.904;2022-10-16T06:03:28;54.33;;;51.72;;
57531;SDS011;43359;51.296;16.904;2022-10-16T06:05:54;60.70;;;57.83;;
57531;SDS011;43359;51.296;16.904;2022-10-16T06:08:21;63.45;;;60.53;;
57531;SDS011;43359;51.296;16.904;2022-10-16T06:10:48;54.33;;;51.42;;
57531;SDS011;43359;51.296;16.904;2022-10-16T06:13:15;43.42;;;41.03;;
57531;SDS011;43359;51.296;16.904;2022-10-16T06:15:41;53.45;;;50.42;;
57531;SDS011;43359;51.296;16.904;2022-10-16T06:18:08;55.92;;;53.15;;
57531;SDS011;43359;51.296;16.904;2022-10-16T06:20:34;68.72;;;65.32;;
57531;SDS011;43359;51.296;16.904;2022-10-16T06:23:00;58.17;;;55.42;;
57531;SDS011;43359;51.296;16.904;2022-10-16T06:25:26;66.07;;;63.08;;
57531;SDS011;43359;51.296;16.904;2022-10-16T06:27:53;59.58;;;56.47;;
57531;SDS011;43359;51.296;16.904;2022-10-16T06:30:20;56.08;;;53.38;;
57531;SDS011;43359;51.296;16.904;2022-10-16T06:32:46;73.32;;;70.03;;
57531;SDS011;43359;51.296;16.904;2022-10-16T06:35:12;60.17;;;57.10;;
57531;SDS011;43359;51.296;16.904;2022-10-16T06:37:38;86.28;;;82.10;;
57531;SDS011;43359;51.296;16.904;2022-10-16T06:40:05;58.25;;;54.58;;
57531;SDS011;43359;51.296;16.904;2022-10-16T06:42:31;58.08;;;54.90;;
57531;SDS011;43359;51.296;16.904;2022-10-16T06:44:57;55.63;;;52.65;;
57531;SDS011;43359;51.296;16.904;2022-10-16T06:47:23;48.35;;;45.75;;
57531;SDS011;43359;51.296;16.904;2022-10-16T06:49:50;50.25;;;47.55;;
57531;SDS011;43359;51.296;16.904;2022-10-16T06:52:16;50.95;;;48.50;;
57531;SDS011;43359;51.296;16.904;2022-10-16T06:54:42;61.00;;;57.92;;
57531;SDS011;43359;51.296;16.904;2022-10-16T06:57:08;63.80;;;60.65;;
57531;SDS011;43359;51.296;16.904;2022-10-16T06:59:35;62.08;;;59.05;;
57531;SDS011;43359;51.296;16.904;2022-10-16T07:02:01;48.70;;;46.33;;
57531;SDS011;43359;51.296;16.904;2022-10-16T07:04:27;57.80;;;54.53;;
57531;SDS011;43359;51.296;16.904;2022-10-16T07:06:53;64.78;;;61.35;;
57531;SDS011;43359;51.296;16.904;2022-10-16T07:09:20;57.95;;;54.90;;
57531;SDS011;43359;51.296;16.904;2022-10-16T07:11:46;43.75;;;41.33;;
57531;SDS011;43359;51.296;16.904;2022-10-16T07:14:14;50.35;;;47.50;;
57531;SDS011;43359;51.296;16.904;2022-10-16T07:16:41;48.17;;;45.80;;
57531;SDS011;43359;51.296;16.904;2022-10-16T07:19:07;49.13;;;46.50;;
57531;SDS011;43359;51.296;16.904;2022-10-16T07:21:34;54.75;;;51.97;;
57531;SDS011;43359;51.296;16.904;2022-10-16T07:24:00;45.08;;;42.83;;
57531;SDS011;43359;51.296;16.904;2022-10-16T07:26:28;48.88;;;46.58;;
57531;SDS011;43359;51.296;16.904;2022-10-16T07:28:55;41.50;;;39.35;;
57531;SDS011;43359;51.296;16.904;2022-10-16T07:31:22;38.85;;;36.63;;
57531;SDS011;43359;51.296;16.904;2022-10-16T07:33:49;40.85;;;38.55;;
57531;SDS011;43359;51.296;16.904;2022-10-16T07:36:15;40.65;;;38.60;;
57531;SDS011;43359;51.296;16.904;2022-10-16T07:38:45;38.17;;;36.08;;
57531;SDS011;43359;51.296;16.904;2022-10-16T07:41:16;44.67;;;42.47;;
57531;SDS011;43359;51.296;16.904;2022-10-16T07:43:46;46.95;;;44.63;;
57531;SDS011;43359;51.296;16.904;2022-10-16T07:46:12;44.33;;;42.10;;
57531;SDS011;43359;51.296;16.904;2022-10-16T07:48:39;44.05;;;41.85;;
57531;SDS011;43359;51.296;16.904;2022-10-16T07:51:06;46.72;;;44.47;;
57531;SDS011;43359;51.296;16.904;2022-10-16T07:53:34;40.75;;;38.65;;
57531;SDS011;43359;51.296;16.904;2022-10-16T07:56:01;45.60;;;43.20;;
57531;SDS011;43359;51.296;16.904;2022-10-16T07:58:28;42.13;;;39.78;;
57531;SDS011;43359;51.296;16.904;2022-10-16T08:00:54;42.53;;;40.33;;
57531;SDS011;43359;51.296;16.904;2022-10-16T08:03:20;45.35;;;42.97;;
57531;SDS011;43359;51.296;16.904;2022-10-16T08:05:46;47.80;;;45.60;;
57531;SDS011;43359;51.296;16.904;2022-10-16T08:08:13;50.40;;;48.00;;
57531;SDS011;43359;51.296;16.904;2022-10-16T08:10:39;51.47;;;49.00;;
57531;SDS011;43359;51.296;16.904;2022-10-16T08:13:05;51.08;;;48.63;;
57531;SDS011;43359;51.296;16.904;2022-10-16T08:15:31;39.33;;;37.42;;
57531;SDS011;43359;51.296;16.904;2022-10-16T08:17:58;48.47;;;46.03;;
57531;SDS011;43359;51.296;16.904;2022-10-16T08:20:25;39.65;;;37.53;;
57531;SDS011;43359;51.296;16.904;2022-10-16T08:22:51;39.40;;;37.30;;
57531;SDS011;43359;51.296;16.904;2022-10-16T08:25:17;35.88;;;33.88;;
57531;SDS011;43359;51.296;16.904;2022-10-16T08:27:43;43.70;;;41.10;;
57531;SDS011;43359;51.296;16.904;2022-10-16T08:30:09;41.88;;;39.58;;
57531;SDS011;43359;51.296;16.904;2022-10-16T08:32:36;42.45;;;40.42;;
57531;SDS011;43359;51.296;16.904;2022-10-16T08:35:02;39.35;;;37.38;;
57531;SDS011;43359;51.296;16.904;2022-10-16T08:37:31;40.67;;;38.67;;
57531;SDS011;43359;51.296;16.904;2022-10-16T08:39:57;46.08;;;43.78;;
57531;SDS011;43359;51.296;16.904;2022-10-16T08:45:05;40.13;;;38.10;;
57531;SDS011;43359;51.296;16.904;2022-10-16T08:50:02;49.25;;;46.85;;
57531;SDS011;43359;51.296;16.904;2022-10-16T08:52:34;63.75;;;60.75;;
57531;SDS011;43359;51.296;16.904;2022-10-16T08:55:01;59.20;;;56.55;;
57531;SDS011;43359;51.296;16.904;2022-10-16T08:57:27;71.43;;;68.07;;
57531;SDS011;43359;51.296;16.904;2022-10-16T08:59:55;66.80;;;63.65;;
57531;SDS011;43359;51.296;16.904;2022-10-16T09:02:32;77.28;;;73.80;;
57531;SDS011;43359;51.296;16.904;2022-10-16T09:10:32;52.25;;;50.00;;
57531;SDS011;43359;51.296;16.904;2022-10-16T09:13:09;45.72;;;43.63;;
57531;SDS011;43359;51.296;16.904;2022-10-16T09:15:43;42.05;;;40.15;;
57531;SDS011;43359;51.296;16.904;2022-10-16T09:20:59;48.40;;;46.20;;
57531;SDS011;43359;51.296;16.904;2022-10-16T09:23:28;44.17;;;42.17;;
57531;SDS011;43359;51.296;16.904;2022-10-16T09:25:54;73.00;;;69.82;;
57531;SDS011;43359;51.296;16.904;2022-10-16T09:28:21;71.10;;;67.90;;
57531;SDS011;43359;51.296;16.904;2022-10-16T09:30:47;59.05;;;56.45;;
57531;SDS011;43359;51.296;16.904;2022-10-16T09:33:15;56.78;;;54.15;;
57531;SDS011;43359;51.296;16.904;2022-10-16T09:35:46;66.20;;;62.90;;
57531;SDS011;43359;51.296;16.904;2022-10-16T09:40:51;44.00;;;41.75;;
57531;SDS011;43359;51.296;16.904;2022-10-16T09:45:52;75.30;;;72.07;;
57531;SDS011;43359;51.296;16.904;2022-10-16T09:48:19;78.90;;;75.40;;
57531;SDS011;43359;51.296;16.904;2022-10-16T09:50:54;55.00;;;52.60;;
57531;SDS011;43359;51.296;16.904;2022-10-16T09:53:21;48.33;;;46.22;;
57531;SDS011;43359;51.296;16.904;2022-10-16T09:55:51;49.90;;;47.70;;
57531;SDS011;43359;51.296;16.904;2022-10-16T09:58:17;51.25;;;48.95;;
57531;SDS011;43359;51.296;16.904;2022-10-16T10:00:53;52.55;;;50.15;;
57531;SDS011;43359;51.296;16.904;2022-10-16T10:03:36;50.95;;;48.42;;
57531;SDS011;43359;51.296;16.904;2022-10-16T10:06:21;50.08;;;47.88;;
57531;SDS011;43359;51.296;16.904;2022-10-16T10:11:36;44.55;;;42.63;;
57531;SDS011;43359;51.296;16.904;2022-10-16T10:14:44;47.17;;;45.13;;
57531;SDS011;43359;51.296;16.904;2022-10-16T10:16:52;49.20;;;47.08;;
57531;SDS011;43359;51.296;16.904;2022-10-16T10:19:22;49.53;;;47.22;;
57531;SDS011;43359;51.296;16.904;2022-10-16T10:21:49;43.50;;;41.55;;
57531;SDS011;43359;51.296;16.904;2022-10-16T10:24:17;47.53;;;45.38;;
57531;SDS011;43359;51.296;16.904;2022-10-16T10:29:31;51.83;;;49.63;;
57531;SDS011;43359;51.296;16.904;2022-10-16T10:32:04;46.33;;;44.22;;
57531;SDS011;43359;51.296;16.904;2022-10-16T10:37:44;40.25;;;38.53;;
57531;SDS011;43359;51.296;16.904;2022-10-16T10:42:47;52.28;;;49.97;;
57531;SDS011;43359;51.296;16.904;2022-10-16T10:45:25;40.20;;;38.50;;
57531;SDS011;43359;51.296;16.904;2022-10-16T10:47:56;41.40;;;39.60;;
57531;SDS011;43359;51.296;16.904;2022-10-16T10:53:18;55.92;;;53.63;;
57531;SDS011;43359;51.296;16.904;2022-10-16T11:01:10;48.45;;;46.20;;
57531;SDS011;43359;51.296;16.904;2022-10-16T11:11:41;59.78;;;57.38;;
57531;SDS011;43359;51.296;16.904;2022-10-16T11:14:17;55.10;;;52.80;;
57531;SDS011;43359;51.296;16.904;2022-10-16T11:19:33;60.67;;;58.08;;
57531;SDS011;43359;51.296;16.904;2022-10-16T11:24:34;63.35;;;60.75;;
57531;SDS011;43359;51.296;16.904;2022-10-16T11:27:03;58.50;;;55.90;;
57531;SDS011;43359;51.296;16.904;2022-10-16T11:29:30;76.72;;;73.65;;
57531;SDS011;43359;51.296;16.904;2022-10-16T11:31:58;59.75;;;57.25;;
57531;SDS011;43359;51.296;16.904;2022-10-16T11:34:34;82.35;;;79.13;;
57531;SDS011;43359;51.296;16.904;2022-10-16T11:37:05;64.88;;;62.28;;
57531;SDS011;43359;51.296;16.904;2022-10-16T11:39:36;66.07;;;63.38;;
57531;SDS011;43359;51.296;16.904;2022-10-16T11:42:07;58.58;;;56.17;;
57531;SDS011;43359;51.296;16.904;2022-10-16T11:44:44;54.17;;;51.85;;
57531;SDS011;43359;51.296;16.904;2022-10-16T11:49:58;52.67;;;50.58;;
57531;SDS011;43359;51.296;16.904;2022-10-16T11:52:31;60.25;;;57.67;;
57531;SDS011;43359;51.296;16.904;2022-10-16T11:57:38;61.00;;;58.65;;
57531;SDS011;43359;51.296;16.904;2022-10-16T12:02:48;66.18;;;63.58;;
57531;SDS011;43359;51.296;16.904;2022-10-16T12:07:46;69.65;;;67.05;;
57531;SDS011;43359;51.296;16.904;2022-10-16T12:10:21;69.90;;;67.20;;
57531;SDS011;43359;51.296;16.904;2022-10-16T12:12:48;63.42;;;61.03;;
57531;SDS011;43359;51.296;16.904;2022-10-16T12:15:27;60.38;;;58.00;;
57531;SDS011;43359;51.296;16.904;2022-10-16T12:17:53;55.70;;;53.38;;
57531;SDS011;43359;51.296;16.904;2022-10-16T12:20:32;56.97;;;54.78;;
57531;SDS011;43359;51.296;16.904;2022-10-16T12:23:02;50.22;;;48.28;;
57531;SDS011;43359;51.296;16.904;2022-10-16T12:25:31;57.97;;;55.67;;
57531;SDS011;43359;51.296;16.904;2022-10-16T12:30:25;60.80;;;58.45;;
57531;SDS011;43359;51.296;16.904;2022-10-16T12:33:02;47.38;;;45.38;;
57531;SDS011;43359;51.296;16.904;2022-10-16T12:35:30;59.20;;;56.78;;
57531;SDS011;43359;51.296;16.904;2022-10-16T12:38:06;62.63;;;60.13;;
57531;SDS011;43359;51.296;16.904;2022-10-16T12:40:34;59.05;;;56.75;;
57531;SDS011;43359;51.296;16.904;2022-10-16T12:43:24;63.00;;;60.60;;
57531;SDS011;43359;51.296;16.904;2022-10-16T12:45:58;56.28;;;53.88;;
57531;SDS011;43359;51.296;16.904;2022-10-16T12:50:50;63.67;;;61.28;;
57531;SDS011;43359;51.296;16.904;2022-10-16T12:53:26;68.75;;;65.93;;
57531;SDS011;43359;51.296;16.904;2022-10-16T12:58:56;70.53;;;67.82;;
57531;SDS011;43359;51.296;16.904;2022-10-16T13:08:50;62.05;;;59.65;;
57531;SDS011;43359;51.296;16.904;2022-10-16T13:19:00;62.75;;;60.33;;
57531;SDS011;43359;51.296;16.904;2022-10-16T13:21:39;53.90;;;51.75;;
57531;SDS011;43359;51.296;16.904;2022-10-16T13:27:37;68.78;;;66.07;;
57531;SDS011;43359;51.296;16.904;2022-10-16T13:29:54;69.22;;;66.40;;
57531;SDS011;43359;51.296;16.904;2022-10-16T13:32:27;62.63;;;60.00;;
57531;SDS011;43359;51.296;16.904;2022-10-16T13:34:53;62.85;;;60.10;;
57531;SDS011;43359;51.296;16.904;2022-10-16T13:37:31;67.60;;;64.95;;
57531;SDS011;43359;51.296;16.904;2022-10-16T13:42:42;54.58;;;52.38;;
57531;SDS011;43359;51.296;16.904;2022-10-16T13:45:17;58.17;;;55.85;;
57531;SDS011;43359;51.296;16.904;2022-10-16T13:47:43;62.40;;;59.75;;
57531;SDS011;43359;51.296;16.904;2022-10-16T13:50:11;58.38;;;55.97;;
57531;SDS011;43359;51.296;16.904;2022-10-16T13:52:38;50.28;;;48.17;;
57531;SDS011;43359;51.296;16.904;2022-10-16T13:55:04;49.67;;;47.55;;
57531;SDS011;43359;51.296;16.904;2022-10-16T13:57:36;53.70;;;51.50;;
57531;SDS011;43359;51.296;16.904;2022-10-16T14:00:02;71.63;;;68.55;;
57531;SDS011;43359;51.296;16.904;2022-10-16T14:02:35;59.55;;;56.95;;
57531;SDS011;43359;51.296;16.904;2022-10-16T14:05:03;61.85;;;59.35;;
57531;SDS011;43359;51.296;16.904;2022-10-16T14:07:31;65.95;;;63.15;;
57531;SDS011;43359;51.296;16.904;2022-10-16T14:10:01;65.78;;;62.92;;
57531;SDS011;43359;51.296;16.904;2022-10-16T14:12:28;57.75;;;55.25;;
57531;SDS011;43359;51.296;16.904;2022-10-16T14:14:54;65.43;;;62.78;;
57531;SDS011;43359;51.296;16.904;2022-10-16T14:17:28;61.55;;;58.78;;
57531;SDS011;43359;51.296;16.904;2022-10-16T14:19:57;53.30;;;50.92;;
57531;SDS011;43359;51.296;16.904;2022-10-16T14:22:31;65.47;;;62.78;;
57531;SDS011;43359;51.296;16.904;2022-10-16T14:24:58;69.13;;;66.15;;
57531;SDS011;43359;51.296;16.904;2022-10-16T14:27:31;67.70;;;64.53;;
57531;SDS011;43359;51.296;16.904;2022-10-16T14:30:18;56.35;;;53.95;;
57531;SDS011;43359;51.296;16.904;2022-10-16T14:32:54;74.55;;;71.35;;
57531;SDS011;43359;51.296;16.904;2022-10-16T14:35:36;63.80;;;61.05;;
57531;SDS011;43359;51.296;16.904;2022-10-16T14:38:03;66.97;;;64.18;;
57531;SDS011;43359;51.296;16.904;2022-10-16T14:40:31;70.47;;;67.47;;
57531;SDS011;43359;51.296;16.904;2022-10-16T14:42:58;62.75;;;60.20;;
57531;SDS011;43359;51.296;16.904;2022-10-16T14:45:26;74.03;;;71.03;;
57531;SDS011;43359;51.296;16.904;2022-10-16T14:47:54;66.63;;;63.63;;
57531;SDS011;43359;51.296;16.904;2022-10-16T14:50:20;79.20;;;73.45;;
57531;SDS011;43359;51.296;16.904;2022-10-16T14:52:46;67.00;;;62.50;;
57531;SDS011;43359;51.296;16.904;2022-10-16T14:55:13;73.22;;;69.55;;
57531;SDS011;43359;51.296;16.904;2022-10-16T14:57:39;71.55;;;68.28;;
57531;SDS011;43359;51.296;16.904;2022-10-16T15:00:19;79.10;;;75.50;;
57531;SDS011;43359;51.296;16.904;2022-10-16T15:02:47;81.20;;;77.38;;
57531;SDS011;43359;51.296;16.904;2022-10-16T15:05:18;64.68;;;62.15;;
57531;SDS011;43359;51.296;16.904;2022-10-16T15:07:45;56.65;;;54.15;;
57531;SDS011;43359;51.296;16.904;2022-10-16T15:10:12;51.47;;;49.17;;
57531;SDS011;43359;51.296;16.904;2022-10-16T15:12:39;56.63;;;54.05;;
57531;SDS011;43359;51.296;16.904;2022-10-16T15:15:47;54.13;;;51.92;;
57531;SDS011;43359;51.296;16.904;2022-10-16T15:17:55;57.00;;;54.60;;
57531;SDS011;43359;51.296;16.904;2022-10-16T15:20:25;50.55;;;48.35;;
57531;SDS011;43359;51.296;16.904;2022-10-16T15:22:51;57.83;;;55.40;;
57531;SDS011;43359;51.296;16.904;2022-10-16T15:27:52;53.55;;;51.45;;
57531;SDS011;43359;51.296;16.904;2022-10-16T15:30:18;60.22;;;57.63;;
57531;SDS011;43359;51.296;16.904;2022-10-16T15:32:44;61.95;;;59.35;;
57531;SDS011;43359;51.296;16.904;2022-10-16T15:35:10;62.92;;;60.13;;
57531;SDS011;43359;51.296;16.904;2022-10-16T15:37:36;69.50;;;66.45;;
57531;SDS011;43359;51.296;16.904;2022-10-16T15:40:02;86.28;;;82.72;;
57531;SDS011;43359;51.296;16.904;2022-10-16T15:42:29;82.03;;;78.63;;
57531;SDS011;43359;51.296;16.904;2022-10-16T15:44:55;77.45;;;74.30;;
57531;SDS011;43359;51.296;16.904;2022-10-16T15:47:21;75.88;;;71.68;;
57531;SDS011;43359;51.296;16.904;2022-10-16T15:49:47;73.15;;;69.10;;
57531;SDS011;43359;51.296;16.904;2022-10-16T15:52:13;79.55;;;76.05;;
57531;SDS011;43359;51.296;16.904;2022-10-16T15:54:39;67.13;;;63.35;;
57531;SDS011;43359;51.296;16.904;2022-10-16T15:57:24;61.80;;;58.60;;
57531;SDS011;43359;51.296;16.904;2022-10-16T15:59:50;66.45;;;63.25;;
57531;SDS011;43359;51.296;16.904;2022-10-16T16:02:16;56.78;;;54.17;;
57531;SDS011;43359;51.296;16.904;2022-10-16T16:04:43;55.22;;;52.83;;
57531;SDS011;43359;51.296;16.904;2022-10-16T16:07:11;56.53;;;53.72;;
57531;SDS011;43359;51.296;16.904;2022-10-16T16:09:37;51.03;;;48.53;;
57531;SDS011;43359;51.296;16.904;2022-10-16T16:12:03;50.97;;;48.58;;